Time;durP1;ratioP1;P1;durP2;ratioP2;P2;SDS_P1;SDS_P2;PMS_P1;PMS_P2;Temp;Humidity;BMP_temperature;BMP_pressure;BME280_temperature;BME280_humidity;BME280_pressure;Samples;Min_cycle;Max_cycle;Signal;HPM_P1;HPM_P2
2023/08/19 00:00:49;;;;;;;10.57;9.50;;;;;24.60;100206.00;;;;2103418;28;20204;-72
2023/08/19 00:01:49;;;;;;;10.43;9.53;;;;;24.60;100210.00;;;;2095960;28;20216;-71
2023/08/19 00:02:50;;;;;;;10.70;9.53;;;;;24.60;100212.00;;;;2096748;28;20235;-71
2023/08/19 00:03:51;;;;;;;10.50;9.50;;;;;24.60;100209.00;;;;2092047;28;20199;-71
2023/08/19 00:04:51;;;;;;;10.05;9.05;;;;;24.50;100203.00;;;;2104275;28;20216;-71
2023/08/19 00:05:52;;;;;;;10.03;9.13;;;;;24.50;100202.00;;;;2099642;28;20704;-71
2023/08/19 00:06:52;;;;;;;10.37;9.33;;;;;24.60;100200.00;;;;2098536;28;20238;-71
2023/08/19 00:07:53;;;;;;;10.73;9.37;;;;;24.60;100201.00;;;;2097330;28;20212;-71
2023/08/19 00:08:53;;;;;;;10.13;9.20;;;;;24.60;100200.00;;;;2096527;28;20218;-71
2023/08/19 00:09:55;;;;;;;10.20;9.20;;;;;24.50;100204.00;;;;2100698;28;20215;-71
2023/08/19 00:10:55;;;;;;;9.93;9.00;;;;;24.50;100204.00;;;;2096607;28;20582;-71
2023/08/19 00:11:56;;;;;;;10.40;9.23;;;;;24.60;100199.00;;;;2096637;28;20315;-71
2023/08/19 00:12:56;;;;;;;10.30;9.40;;;;;24.60;100197.00;;;;2097296;28;20211;-71
2023/08/19 00:13:57;;;;;;;11.53;9.80;;;;;24.60;100197.00;;;;2094347;28;20925;-71
2023/08/19 00:14:57;;;;;;;9.77;8.97;;;;;24.60;100197.00;;;;2104658;28;20226;-70
2023/08/19 00:15:57;;;;;;;9.90;9.00;;;;;24.60;100203.00;;;;2086118;28;20274;-69
2023/08/19 00:16:58;;;;;;;9.70;8.80;;;;;24.60;100200.00;;;;2087261;28;20333;-69
2023/08/19 00:18:00;;;;;;;10.83;9.50;;;;;24.60;100204.00;;;;2096947;28;20215;-67
2023/08/19 00:19:01;;;;;;;12.20;9.43;;;;;24.60;100197.00;;;;2093628;28;20690;-67
2023/08/19 00:20:02;;;;;;;10.10;9.10;;;;;24.50;100203.00;;;;2106787;28;20211;-67
2023/08/19 00:21:03;;;;;;;9.45;8.75;;;;;24.60;100204.00;;;;2097955;28;20228;-67
2023/08/19 00:22:04;;;;;;;9.98;9.07;;;;;24.60;100196.00;;;;2096163;28;20240;-67
2023/08/19 00:23:04;;;;;;;9.80;8.87;;;;;24.60;100195.00;;;;2096332;28;20231;-67
2023/08/19 00:24:05;;;;;;;11.27;9.07;;;;;24.60;100194.00;;;;2093173;28;20268;-67
2023/08/19 00:25:05;;;;;;;10.70;9.70;;;;;24.60;100194.00;;;;2096088;28;20234;-67
2023/08/19 00:26:05;;;;;;;9.90;8.90;;;;;24.50;100196.00;;;;2095075;28;20291;-67
2023/08/19 00:27:06;;;;;;;10.10;9.10;;;;;24.60;100198.00;;;;2091291;28;20301;-67
2023/08/19 00:28:06;;;;;;;10.17;9.17;;;;;24.60;100194.00;;;;2093027;28;20244;-67
2023/08/19 00:29:06;;;;;;;10.07;9.07;;;;;24.50;100195.00;;;;2094031;28;20316;-67
2023/08/19 00:30:07;;;;;;;11.23;9.23;;;;;24.50;100192.00;;;;2107832;28;20222;-67
2023/08/19 00:31:07;;;;;;;11.27;8.70;;;;;24.50;100204.00;;;;2097386;28;20227;-67
2023/08/19 00:32:08;;;;;;;9.43;8.40;;;;;24.50;100197.00;;;;2092979;28;20714;-67
2023/08/19 00:33:08;;;;;;;9.70;8.90;;;;;24.50;100199.00;;;;2095628;28;20219;-67
2023/08/19 00:34:09;;;;;;;10.07;9.17;;;;;24.50;100200.00;;;;2099944;28;20234;-67
2023/08/19 00:35:09;;;;;;;10.30;9.30;;;;;24.50;100200.00;;;;2105281;28;20246;-67
2023/08/19 00:36:10;;;;;;;10.27;9.17;;;;;24.50;100204.00;;;;2095597;28;20307;-67
2023/08/19 00:37:10;;;;;;;10.27;9.20;;;;;24.50;100193.00;;;;2093736;28;20216;-67
2023/08/19 00:38:10;;;;;;;9.60;8.80;;;;;24.50;100199.00;;;;2091849;28;20216;-67
2023/08/19 00:39:11;;;;;;;11.20;8.40;;;;;24.50;100200.00;;;;2090977;28;20204;-66
2023/08/19 00:40:17;;;;;;;9.13;8.17;;;;;24.50;100198.00;;;;2095373;28;20263;-66
2023/08/19 00:41:18;;;;;;;10.20;8.65;;;;;24.50;100199.00;;;;2096687;28;20305;-66
2023/08/19 00:42:18;;;;;;;9.43;8.50;;;;;24.50;100199.00;;;;2091739;28;20229;-66
2023/08/19 00:43:19;;;;;;;8.77;7.83;;;;;24.50;100196.00;;;;2084315;28;20265;-66
2023/08/19 00:44:19;;;;;;;8.90;8.03;;;;;24.50;100199.00;;;;2104372;28;20207;-66
2023/08/19 00:45:20;;;;;;;9.30;8.50;;;;;24.50;100200.00;;;;2102243;28;20230;-67
2023/08/19 00:46:20;;;;;;;9.30;8.40;;;;;24.50;100199.00;;;;2097084;28;20236;-67
2023/08/19 00:47:20;;;;;;;8.93;8.07;;;;;24.50;100198.00;;;;2095821;28;20223;-67
2023/08/19 00:48:21;;;;;;;11.67;8.27;;;;;24.50;100196.00;;;;2085930;28;20224;-67
2023/08/19 00:49:22;;;;;;;8.57;7.77;;;;;24.50;100197.00;;;;2102590;28;20311;-67
2023/08/19 00:50:23;;;;;;;9.10;8.20;;;;;24.50;100200.00;;;;2102767;28;20654;-67
2023/08/19 00:51:23;;;;;;;8.70;8.00;;;;;24.50;100198.00;;;;2092316;28;20281;-67
2023/08/19 00:52:24;;;;;;;9.63;8.73;;;;;24.50;100191.00;;;;2096258;28;20261;-67
2023/08/19 00:53:24;;;;;;;8.83;8.00;;;;;24.50;100195.00;;;;2087087;28;20220;-67
2023/08/19 00:54:24;;;;;;;8.70;7.90;;;;;24.40;100196.00;;;;2095282;28;20216;-67
2023/08/19 00:55:25;;;;;;;9.07;8.27;;;;;24.50;100196.00;;;;2087412;28;20220;-67
2023/08/19 00:56:25;;;;;;;9.40;8.50;;;;;24.50;100198.00;;;;2087081;28;20223;-67
2023/08/19 00:57:25;;;;;;;8.60;7.90;;;;;24.50;100202.00;;;;2089714;28;20217;-67
2023/08/19 00:58:26;;;;;;;8.90;8.07;;;;;24.40;100203.00;;;;2085324;28;20551;-67
2023/08/19 00:59:26;;;;;;;10.30;8.93;;;;;24.40;100199.00;;;;2103695;28;20712;-67
2023/08/19 01:00:29;;;;;;;8.90;8.00;;;;;24.50;100201.00;;;;2096179;28;20220;-67
2023/08/19 01:01:29;;;;;;;9.20;7.80;;;;;24.50;100200.00;;;;2085843;28;20209;-67
2023/08/19 01:02:29;;;;;;;9.80;8.13;;;;;24.50;100208.00;;;;2088695;28;20217;-67
2023/08/19 01:03:29;;;;;;;8.60;7.73;;;;;24.50;100203.00;;;;2089047;28;20236;-67
2023/08/19 01:04:30;;;;;;;9.07;8.17;;;;;24.50;100180.00;;;;2103872;28;20207;-67
2023/08/19 01:05:43;;;;;;;8.80;8.10;;;;;24.50;100196.00;;;;2101160;28;20216;-67
2023/08/19 01:07:08;;;;;;;9.25;8.25;;;;;24.50;100200.00;;;;2096051;28;20239;-67
2023/08/19 01:08:08;;;;;;;9.80;8.80;;;;;24.50;100198.00;;;;2086154;28;20297;-67
2023/08/19 01:09:29;;;;;;;8.90;8.00;;;;;24.40;100207.00;;;;2081374;28;20285;-67
2023/08/19 01:10:36;;;;;;;9.27;8.38;;;;;24.50;100198.00;;;;2095219;28;20717;-67
2023/08/19 01:11:47;;;;;;;10.20;8.00;;;;;24.40;100206.00;;;;2085013;28;20706;-67
2023/08/19 01:12:58;;;;;;;9.05;7.60;;;;;24.40;100199.00;;;;2083120;28;20224;-67
2023/08/19 01:14:05;;;;;;;8.45;7.75;;;;;24.40;100198.00;;;;2076247;28;20666;-67
2023/08/19 01:15:17;;;;;;;9.13;7.50;;;;;24.40;100199.00;;;;2088182;28;20221;-67
2023/08/19 01:16:22;;;;;;;8.50;7.70;;;;;24.40;100175.00;;;;2073947;28;20230;-67
2023/08/19 01:17:25;;;;;;;8.55;7.53;;;;;24.40;100203.00;;;;2080591;28;20287;-67
2023/08/19 01:18:25;;;;;;;8.50;7.70;;;;;24.40;100197.00;;;;2063162;28;20225;-67
2023/08/19 01:19:30;;;;;;;8.70;7.90;;;;;24.40;100197.00;;;;2099938;28;20294;-67
2023/08/19 01:20:31;;;;;;;8.32;7.63;;;;;24.40;100202.00;;;;2101042;28;20239;-67
2023/08/19 01:21:32;;;;;;;8.35;7.60;;;;;24.30;100165.00;;;;2092873;28;20226;-67
2023/08/19 01:22:45;;;;;;;8.53;7.63;;;;;24.40;100193.00;;;;2084963;28;20206;-67
2023/08/19 01:23:47;;;;;;;8.38;7.68;;;;;24.40;100185.00;;;;2082316;28;20247;-67
2023/08/19 01:24:48;;;;;;;12.80;7.85;;;;;24.40;100160.00;;;;2095988;28;20298;-67
2023/08/19 01:25:48;;;;;;;8.43;7.60;;;;;24.30;100191.00;;;;2073237;28;20221;-67
2023/08/19 01:26:48;;;;;;;8.33;7.40;;;;;24.30;100189.00;;;;2086499;28;20673;-67
2023/08/19 01:27:49;;;;;;;8.70;7.07;;;;;24.30;100183.00;;;;2095927;28;20668;-67
2023/08/19 01:28:50;;;;;;;9.23;7.43;;;;;24.30;100174.00;;;;2084709;28;20209;-67
2023/08/19 01:29:51;;;;;;;9.27;8.10;;;;;24.30;100184.00;;;;2098048;28;20353;-67
2023/08/19 01:30:51;;;;;;;9.48;7.85;;;;;24.30;100179.00;;;;2096147;28;20979;-67
2023/08/19 01:31:51;;;;;;;8.90;8.00;;;;;24.30;100176.00;;;;2095774;28;20232;-67
2023/08/19 01:32:52;;;;;;;8.60;7.90;;;;;24.30;100177.00;;;;2090381;28;20209;-67
2023/08/19 01:33:52;;;;;;;8.33;7.53;;;;;24.30;100173.00;;;;2087106;28;20293;-67
2023/08/19 01:34:53;;;;;;;8.60;7.80;;;;;24.30;100179.00;;;;2092773;28;20595;-67
2023/08/19 01:36:21;;;;;;;8.63;7.72;;;;;24.30;100174.00;;;;2086439;28;20216;-67
2023/08/19 01:37:31;;;;;;;9.23;8.05;;;;;24.30;100180.00;;;;2087121;28;20259;-67
2023/08/19 01:38:54;;;;;;;8.65;7.75;;;;;24.30;100174.00;;;;2063400;28;20237;-67
2023/08/19 01:39:55;;;;;;;7.25;6.65;;;;;24.20;100178.00;;;;2084744;28;20217;-67
2023/08/19 01:40:55;;;;;;;9.60;8.60;;;;;24.20;100153.00;;;;2082779;28;20705;-67
2023/08/19 01:41:56;;;;;;;9.53;7.60;;;;;24.20;100174.00;;;;2084862;28;20210;-67
2023/08/19 01:42:57;;;;;;;7.53;6.83;;;;;24.20;100173.00;;;;2082555;28;20213;-67
2023/08/19 01:43:58;;;;;;;8.15;7.40;;;;;24.20;100178.00;;;;2085590;28;20246;-67
2023/08/19 01:44:58;;;;;;;9.13;7.60;;;;;24.20;100182.00;;;;2094747;28;20287;-67
2023/08/19 01:45:58;;;;;;;8.27;7.50;;;;;24.20;100178.00;;;;2084369;28;20264;-67
2023/08/19 01:47:16;;;;;;;8.87;8.03;;;;;24.20;100182.00;;;;2085814;28;20724;-67
2023/08/19 01:48:16;;;;;;;7.72;7.03;;;;;24.20;100177.00;;;;2079441;28;20701;-67
2023/08/19 01:49:16;;;;;;;8.93;8.03;;;;;24.20;100183.00;;;;2104669;28;20229;-67
2023/08/19 01:50:17;;;;;;;8.30;7.50;;;;;24.20;100181.00;;;;2102359;28;20577;-67
2023/08/19 01:51:17;;;;;;;12.93;7.70;;;;;24.20;100181.00;;;;2090937;28;20216;-67
2023/08/19 01:52:18;;;;;;;8.57;7.00;;;;;24.20;100181.00;;;;2093191;28;20315;-67
2023/08/19 01:53:18;;;;;;;8.63;7.80;;;;;24.20;100181.00;;;;2084080;28;20208;-67
2023/08/19 01:54:18;;;;;;;7.60;6.97;;;;;24.10;100175.00;;;;2093241;28;20216;-67
2023/08/19 01:55:18;;;;;;;7.70;7.10;;;;;24.20;100181.00;;;;2099268;28;20242;-67
2023/08/19 01:56:19;;;;;;;8.10;7.30;;;;;24.20;100188.00;;;;2095699;28;20765;-67
2023/08/19 01:57:19;;;;;;;7.20;6.60;;;;;24.20;100174.00;;;;2091682;28;20212;-67
2023/08/19 01:58:19;;;;;;;8.80;8.03;;;;;24.20;100186.00;;;;2087254;28;20235;-67
2023/08/19 01:59:20;;;;;;;8.50;6.73;;;;;24.20;100174.00;;;;2103136;28;20317;-67
2023/08/19 02:00:20;;;;;;;8.63;7.80;;;;;24.10;100181.00;;;;2102746;28;20215;-67
2023/08/19 02:01:20;;;;;;;8.70;7.90;;;;;24.10;100178.00;;;;2091817;28;20204;-67
2023/08/19 02:02:24;;;;;;;8.83;7.60;;;;;24.10;100177.00;;;;2094821;28;20444;-67
2023/08/19 02:03:24;;;;;;;8.55;7.65;;;;;24.10;100182.00;;;;2087879;28;20308;-67
2023/08/19 02:04:25;;;;;;;8.13;7.20;;;;;24.10;100186.00;;;;2103327;28;20253;-67
2023/08/19 02:05:25;;;;;;;9.20;6.30;;;;;24.10;100188.00;;;;2103767;28;20307;-67
2023/08/19 02:06:25;;;;;;;10.00;8.00;;;;;24.10;100186.00;;;;2093293;28;20220;-67
2023/08/19 02:07:26;;;;;;;11.00;8.00;;;;;24.10;100182.00;;;;2087228;28;20225;-67
2023/08/19 02:08:26;;;;;;;8.30;7.50;;;;;24.10;100194.00;;;;2085425;28;20219;-66
2023/08/19 02:09:28;;;;;;;8.00;7.17;;;;;24.10;100196.00;;;;2103226;28;20253;-67
2023/08/19 02:10:29;;;;;;;7.60;6.85;;;;;24.10;100183.00;;;;2101637;28;20341;-67
2023/08/19 02:11:29;;;;;;;8.30;7.00;;;;;24.10;100177.00;;;;2093224;28;20212;-67
2023/08/19 02:12:30;;;;;;;8.50;7.10;;;;;24.10;100186.00;;;;2095658;28;20287;-67
2023/08/19 02:13:30;;;;;;;7.73;7.03;;;;;24.10;100203.00;;;;2081921;28;20676;-67
2023/08/19 02:14:30;;;;;;;9.17;7.10;;;;;24.10;100183.00;;;;2103878;28;20204;-67
2023/08/19 02:15:31;;;;;;;7.40;6.70;;;;;24.10;100180.00;;;;2095161;28;20235;-67
2023/08/19 02:16:31;;;;;;;11.43;7.17;;;;;24.10;100187.00;;;;2094726;28;20204;-67
2023/08/19 02:17:31;;;;;;;7.87;7.00;;;;;24.10;100188.00;;;;2096317;28;20295;-67
2023/08/19 02:18:32;;;;;;;8.93;7.20;;;;;24.00;100181.00;;;;2084701;28;20224;-67
2023/08/19 02:19:32;;;;;;;7.90;7.10;;;;;24.10;100186.00;;;;2095493;28;20253;-67
2023/08/19 02:20:32;;;;;;;7.30;6.70;;;;;24.10;100185.00;;;;2099248;28;20735;-67
2023/08/19 02:21:33;;;;;;;7.30;6.60;;;;;24.10;100189.00;;;;2095549;28;20665;-67
2023/08/19 02:22:33;;;;;;;7.97;7.20;;;;;24.10;100186.00;;;;2096090;28;20645;-67
2023/08/19 02:23:33;;;;;;;7.10;6.40;;;;;24.00;100155.00;;;;2088130;28;20309;-67
2023/08/19 02:24:34;;;;;;;7.47;6.67;;;;;24.00;100181.00;;;;2109835;28;20215;-67
2023/08/19 02:25:34;;;;;;;9.50;7.90;;;;;24.00;100182.00;;;;2099790;28;20213;-67
2023/08/19 02:26:34;;;;;;;6.83;6.23;;;;;24.10;100185.00;;;;2095946;28;20212;-67
2023/08/19 02:27:36;;;;;;;7.60;6.67;;;;;24.00;100182.00;;;;2095335;28;20216;-67
2023/08/19 02:28:36;;;;;;;7.40;6.80;;;;;24.00;100189.00;;;;2088766;28;20231;-67
2023/08/19 02:29:37;;;;;;;9.10;7.33;;;;;24.00;100183.00;;;;2103640;28;20228;-67
2023/08/19 02:30:39;;;;;;;7.53;6.77;;;;;24.00;100182.00;;;;2095086;28;20212;-67
2023/08/19 02:31:40;;;;;;;6.75;6.15;;;;;24.00;100186.00;;;;2095530;28;20697;-67
2023/08/19 02:32:41;;;;;;;7.20;6.50;;;;;24.00;100185.00;;;;2094651;28;20208;-67
2023/08/19 02:33:41;;;;;;;8.47;7.23;;;;;24.00;100190.00;;;;2081299;28;20285;-67
2023/08/19 02:34:41;;;;;;;7.73;6.93;;;;;24.00;100191.00;;;;2102644;28;20755;-67
2023/08/19 02:35:42;;;;;;;6.53;6.03;;;;;24.00;100186.00;;;;2099579;28;20220;-67
2023/08/19 02:36:42;;;;;;;7.77;6.90;;;;;24.00;100179.00;;;;2096230;28;20236;-67
2023/08/19 02:37:42;;;;;;;9.17;6.90;;;;;24.00;100179.00;;;;2095505;28;20215;-67
2023/08/19 02:38:43;;;;;;;7.50;6.70;;;;;23.90;100185.00;;;;2083029;28;20224;-67
2023/08/19 02:39:43;;;;;;;7.33;6.53;;;;;24.00;100178.00;;;;2105407;28;20271;-67
2023/08/19 02:40:50;;;;;;;6.63;6.13;;;;;23.90;100183.00;;;;2101090;28;20228;-67
2023/08/19 02:41:50;;;;;;;10.75;6.97;;;;;23.90;100182.00;;;;2094698;28;20208;-67
2023/08/19 02:42:51;;;;;;;7.03;6.30;;;;;23.90;100170.00;;;;2089056;28;20246;-67
2023/08/19 02:43:51;;;;;;;8.70;7.80;;;;;24.00;100175.00;;;;2092377;28;20567;-67
2023/08/19 02:44:51;;;;;;;7.43;6.50;;;;;24.00;100174.00;;;;2108785;28;20214;-67
2023/08/19 02:45:53;;;;;;;7.63;6.70;;;;;24.00;100168.00;;;;2100998;28;20255;-67
2023/08/19 02:46:53;;;;;;;7.55;6.82;;;;;23.90;100173.00;;;;2094622;28;20711;-67
2023/08/19 02:47:54;;;;;;;11.20;6.80;;;;;23.90;100165.00;;;;2092731;28;20234;-67
2023/08/19 02:48:54;;;;;;;7.20;6.60;;;;;23.90;100169.00;;;;2090944;28;20219;-67
2023/08/19 02:49:54;;;;;;;7.90;6.87;;;;;23.90;100165.00;;;;2104733;28;20708;-67
2023/08/19 02:50:55;;;;;;;7.07;6.03;;;;;23.90;100170.00;;;;2100492;28;20495;-67
2023/08/19 02:51:55;;;;;;;7.37;6.77;;;;;23.90;100173.00;;;;2094012;28;20705;-67
2023/08/19 02:52:55;;;;;;;8.53;7.07;;;;;23.90;100168.00;;;;2095700;28;20220;-67
2023/08/19 02:53:56;;;;;;;7.77;6.60;;;;;23.90;100169.00;;;;2092865;28;20219;-67
2023/08/19 02:54:56;;;;;;;8.30;6.27;;;;;23.90;100163.00;;;;2109081;28;20211;-67
2023/08/19 02:55:57;;;;;;;7.50;6.80;;;;;23.90;100167.00;;;;2099273;28;20212;-67
2023/08/19 02:56:58;;;;;;;8.40;6.50;;;;;23.90;100167.00;;;;2095504;28;20212;-67
2023/08/19 02:57:59;;;;;;;7.70;7.00;;;;;23.90;100163.00;;;;2096113;28;20204;-67
2023/08/19 02:59:00;;;;;;;7.88;6.68;;;;;23.90;100167.00;;;;2093880;28;20708;-67
2023/08/19 03:00:00;;;;;;;7.30;6.50;;;;;23.90;100163.00;;;;2108784;28;20207;-67
2023/08/19 03:01:00;;;;;;;7.00;6.30;;;;;23.90;100159.00;;;;2096658;28;20291;-67
2023/08/19 03:02:01;;;;;;;7.13;6.53;;;;;23.90;100170.00;;;;2100825;28;20228;-67
2023/08/19 03:03:01;;;;;;;6.70;6.10;;;;;23.90;100157.00;;;;2094943;28;20224;-67
2023/08/19 03:04:02;;;;;;;8.23;6.80;;;;;23.90;100164.00;;;;2085216;28;20211;-67
2023/08/19 03:05:04;;;;;;;7.27;6.57;;;;;23.80;100153.00;;;;2099506;28;20229;-67
2023/08/19 03:06:04;;;;;;;8.60;7.25;;;;;23.90;100155.00;;;;2092175;28;20346;-67
2023/08/19 03:07:05;;;;;;;9.93;6.47;;;;;23.90;100155.00;;;;2090855;28;20215;-67
2023/08/19 03:08:05;;;;;;;6.77;6.03;;;;;23.90;100156.00;;;;2093062;28;20208;-67
2023/08/19 03:09:06;;;;;;;7.50;6.70;;;;;23.90;100152.00;;;;2085488;28;20227;-67
2023/08/19 03:10:07;;;;;;;7.73;6.90;;;;;23.90;100147.00;;;;2094169;28;21018;-67
2023/08/19 03:11:07;;;;;;;7.07;6.37;;;;;23.90;100147.00;;;;2096601;28;20731;-67
2023/08/19 03:12:08;;;;;;;7.47;6.40;;;;;23.90;100153.00;;;;2093753;28;20223;-67
2023/08/19 03:13:08;;;;;;;8.07;6.07;;;;;23.90;100157.00;;;;2091027;28;20212;-67
2023/08/19 03:14:08;;;;;;;7.80;6.20;;;;;23.90;100153.00;;;;2075212;28;20247;-67
2023/08/19 03:15:09;;;;;;;8.07;6.60;;;;;23.90;100154.00;;;;2086520;28;20225;-67
2023/08/19 03:16:09;;;;;;;6.17;5.63;;;;;23.90;100159.00;;;;2093277;28;20211;-67
2023/08/19 03:17:09;;;;;;;6.83;6.20;;;;;23.90;100158.00;;;;2095321;28;20224;-67
2023/08/19 03:18:10;;;;;;;8.20;6.90;;;;;23.90;100153.00;;;;2094109;28;20247;-67
2023/08/19 03:19:10;;;;;;;6.43;5.80;;;;;23.90;100157.00;;;;2083867;28;20697;-67
2023/08/19 03:20:11;;;;;;;10.17;6.17;;;;;23.90;100150.00;;;;2095324;28;20699;-67
2023/08/19 03:21:11;;;;;;;8.40;6.17;;;;;23.90;100151.00;;;;2093585;28;20208;-67
2023/08/19 03:22:12;;;;;;;9.40;5.40;;;;;23.90;100152.00;;;;2095975;28;20695;-67
2023/08/19 03:23:12;;;;;;;6.97;6.37;;;;;23.90;100149.00;;;;2084338;28;20209;-67
2023/08/19 03:24:12;;;;;;;6.77;6.17;;;;;23.80;100152.00;;;;2095143;28;20948;-67
2023/08/19 03:25:13;;;;;;;6.77;6.00;;;;;23.80;100135.00;;;;2105080;28;20688;-67
2023/08/19 03:26:13;;;;;;;8.37;6.00;;;;;23.80;100144.00;;;;2082853;28;20745;-66
2023/08/19 03:27:13;;;;;;;7.67;6.97;;;;;23.80;100144.00;;;;2083183;28;20822;-66
2023/08/19 03:28:14;;;;;;;7.13;6.43;;;;;23.90;100139.00;;;;2081798;28;20729;-66
2023/08/19 03:29:14;;;;;;;6.93;6.23;;;;;23.80;100149.00;;;;2098610;28;20230;-66
2023/08/19 03:30:14;;;;;;;7.40;6.70;;;;;23.80;100137.00;;;;2095821;28;20203;-66
2023/08/19 03:31:15;;;;;;;8.17;7.10;;;;;23.80;100135.00;;;;2094918;28;20259;-66
2023/08/19 03:32:15;;;;;;;7.13;6.53;;;;;23.80;100141.00;;;;2092116;28;20213;-66
2023/08/19 03:33:15;;;;;;;6.43;5.80;;;;;23.80;100141.00;;;;2084985;28;20209;-66
2023/08/19 03:34:16;;;;;;;7.83;7.03;;;;;23.80;100133.00;;;;2105710;28;20207;-66
2023/08/19 03:35:16;;;;;;;8.10;7.23;;;;;23.80;100135.00;;;;2099790;28;20211;-66
2023/08/19 03:36:16;;;;;;;7.40;6.80;;;;;23.80;100127.00;;;;2087781;28;20236;-66
2023/08/19 03:37:17;;;;;;;6.60;6.10;;;;;23.80;100135.00;;;;2090946;28;20204;-66
2023/08/19 03:38:17;;;;;;;8.43;6.70;;;;;23.80;100129.00;;;;2085723;28;20266;-66
2023/08/19 03:39:17;;;;;;;7.77;7.07;;;;;23.70;100124.00;;;;2103215;28;20208;-66
2023/08/19 03:40:18;;;;;;;8.03;6.83;;;;;23.80;100127.00;;;;2101850;28;20269;-66
2023/08/19 03:41:18;;;;;;;8.93;6.60;;;;;23.70;100127.00;;;;2089699;28;20307;-66
2023/08/19 03:42:18;;;;;;;7.47;6.67;;;;;23.80;100133.00;;;;2091586;28;21066;-66
2023/08/19 03:43:19;;;;;;;6.50;5.90;;;;;23.70;100132.00;;;;2087100;28;20212;-66
2023/08/19 03:44:19;;;;;;;6.30;5.70;;;;;23.70;100137.00;;;;2103304;28;20227;-66
2023/08/19 03:45:19;;;;;;;8.47;6.07;;;;;23.70;100137.00;;;;2109004;28;20246;-66
2023/08/19 03:46:20;;;;;;;6.93;6.33;;;;;23.70;100138.00;;;;2095770;28;20912;-66
2023/08/19 03:47:20;;;;;;;7.23;6.60;;;;;23.80;100131.00;;;;2094959;28;20602;-66
2023/08/19 03:48:20;;;;;;;6.60;6.00;;;;;23.80;100133.00;;;;2084327;28;20678;-66
2023/08/19 03:49:21;;;;;;;8.70;6.60;;;;;23.80;100133.00;;;;2102597;28;20269;-66
2023/08/19 03:50:21;;;;;;;7.67;5.83;;;;;23.80;100142.00;;;;2101512;28;20262;-67
2023/08/19 03:51:21;;;;;;;6.20;5.70;;;;;23.80;100135.00;;;;2092863;28;20577;-67
2023/08/19 03:52:23;;;;;;;6.50;5.87;;;;;23.80;100131.00;;;;2094366;28;20573;-67
2023/08/19 03:53:24;;;;;;;6.32;5.65;;;;;23.80;100134.00;;;;2085593;28;20299;-67
2023/08/19 03:54:24;;;;;;;5.77;5.27;;;;;23.80;100138.00;;;;2106129;28;20207;-67
2023/08/19 03:55:24;;;;;;;7.07;5.60;;;;;23.80;100135.00;;;;2101443;28;20339;-67
2023/08/19 03:56:25;;;;;;;7.43;5.57;;;;;23.70;100139.00;;;;2095183;28;20216;-67
2023/08/19 03:57:25;;;;;;;6.73;6.23;;;;;23.70;100140.00;;;;2094482;28;20216;-67
2023/08/19 03:58:25;;;;;;;10.70;5.87;;;;;23.70;100141.00;;;;2086867;28;20244;-67
2023/08/19 03:59:26;;;;;;;11.17;5.53;;;;;23.70;100133.00;;;;2103455;28;20219;-67
2023/08/19 04:00:26;;;;;;;6.77;5.27;;;;;23.70;100140.00;;;;2104223;28;20226;-67
2023/08/19 04:01:26;;;;;;;6.53;5.23;;;;;23.70;100135.00;;;;2096311;28;20765;-67
2023/08/19 04:02:27;;;;;;;8.93;5.70;;;;;23.70;100140.00;;;;2100251;28;20687;-67
2023/08/19 04:03:27;;;;;;;6.00;5.40;;;;;23.70;100142.00;;;;2089486;28;20673;-67
2023/08/19 04:04:28;;;;;;;6.40;5.50;;;;;23.70;100135.00;;;;2105359;28;20233;-67
2023/08/19 04:05:28;;;;;;;5.67;5.17;;;;;23.60;100132.00;;;;2103599;28;20216;-67
2023/08/19 04:06:28;;;;;;;6.10;5.43;;;;;23.70;100140.00;;;;2097187;28;20219;-67
2023/08/19 04:07:29;;;;;;;9.30;6.60;;;;;23.70;100135.00;;;;2096326;28;20693;-67
2023/08/19 04:08:29;;;;;;;6.30;4.97;;;;;23.70;100130.00;;;;2089513;28;20726;-67
2023/08/19 04:09:29;;;;;;;6.30;5.50;;;;;23.80;100128.00;;;;2104822;28;20616;-67
2023/08/19 04:10:30;;;;;;;7.60;5.40;;;;;23.70;100136.00;;;;2102505;28;20497;-66
2023/08/19 04:11:30;;;;;;;7.77;6.00;;;;;23.70;100128.00;;;;2096508;28;20209;-66
2023/08/19 04:12:30;;;;;;;6.43;5.83;;;;;23.80;100135.00;;;;2097460;28;20303;-66
2023/08/19 04:13:31;;;;;;;6.87;5.40;;;;;23.80;100138.00;;;;2089663;28;20216;-67
2023/08/19 04:14:31;;;;;;;5.93;5.33;;;;;23.70;100136.00;;;;2095981;28;20211;-67
2023/08/19 04:15:33;;;;;;;6.63;5.33;;;;;23.80;100135.00;;;;2096110;28;20219;-67
2023/08/19 04:16:33;;;;;;;8.23;5.78;;;;;23.70;100136.00;;;;2096176;28;20212;-67
2023/08/19 04:17:34;;;;;;;6.77;5.50;;;;;23.70;100128.00;;;;2097284;28;20818;-67
2023/08/19 04:18:34;;;;;;;6.00;5.30;;;;;23.70;100135.00;;;;2088987;28;20228;-67
2023/08/19 04:19:35;;;;;;;9.00;5.50;;;;;23.70;100130.00;;;;2104228;28;20258;-67
2023/08/19 04:20:41;;;;;;;6.00;5.37;;;;;23.70;100137.00;;;;2101676;28;20214;-67
2023/08/19 04:21:41;;;;;;;9.32;5.72;;;;;23.70;100140.00;;;;2096068;28;20212;-67
2023/08/19 04:22:42;;;;;;;5.63;4.90;;;;;23.70;100134.00;;;;2097176;28;20212;-67
2023/08/19 04:23:42;;;;;;;9.67;5.20;;;;;23.70;100127.00;;;;2092971;28;20254;-67
2023/08/19 04:24:42;;;;;;;5.83;5.33;;;;;23.70;100140.00;;;;2106068;28;20208;-67
2023/08/19 04:25:42;;;;;;;7.07;5.20;;;;;23.70;100133.00;;;;2097088;28;20212;-67
2023/08/19 04:26:43;;;;;;;9.37;5.40;;;;;23.70;100136.00;;;;2096429;28;20251;-67
2023/08/19 04:27:43;;;;;;;6.93;5.27;;;;;23.80;100133.00;;;;2095676;28;20220;-67
2023/08/19 04:28:43;;;;;;;5.83;5.33;;;;;23.80;100145.00;;;;2090470;28;20234;-67
2023/08/19 04:29:44;;;;;;;5.33;4.80;;;;;23.80;100147.00;;;;2108105;28;20239;-67
2023/08/19 04:30:44;;;;;;;5.63;5.13;;;;;23.80;100144.00;;;;2098430;28;20227;-67
2023/08/19 04:31:44;;;;;;;7.50;5.10;;;;;23.70;100144.00;;;;2096345;28;20216;-67
2023/08/19 04:32:46;;;;;;;5.90;5.40;;;;;23.70;100140.00;;;;2096074;28;20224;-67
2023/08/19 04:33:46;;;;;;;6.20;5.55;;;;;23.70;100152.00;;;;2091232;28;20335;-67
2023/08/19 04:34:47;;;;;;;5.40;4.90;;;;;23.70;100143.00;;;;2106749;28;20212;-67
2023/08/19 04:35:47;;;;;;;8.10;5.87;;;;;23.70;100146.00;;;;2100320;28;20232;-67
2023/08/19 04:36:47;;;;;;;6.97;5.30;;;;;23.70;100148.00;;;;2097114;28;20217;-67
2023/08/19 04:37:48;;;;;;;5.17;4.77;;;;;23.70;100144.00;;;;2096154;28;20216;-67
2023/08/19 04:38:48;;;;;;;7.20;5.27;;;;;23.70;100138.00;;;;2084416;28;20221;-67
2023/08/19 04:39:48;;;;;;;5.50;5.00;;;;;23.70;100135.00;;;;2104602;28;20228;-67
2023/08/19 04:40:50;;;;;;;7.03;4.47;;;;;23.70;100145.00;;;;2099273;28;20215;-67
2023/08/19 04:41:51;;;;;;;6.50;5.90;;;;;23.70;100147.00;;;;2097161;28;20299;-67
2023/08/19 04:42:51;;;;;;;7.70;4.97;;;;;23.70;100150.00;;;;2093632;28;20208;-67
2023/08/19 04:43:51;;;;;;;5.40;5.00;;;;;23.70;100149.00;;;;2092154;28;20215;-67
2023/08/19 04:44:52;;;;;;;7.53;4.90;;;;;23.70;100148.00;;;;2109953;28;20300;-67
2023/08/19 04:45:54;;;;;;;5.80;5.20;;;;;23.70;100144.00;;;;2099249;28;20226;-67
2023/08/19 04:46:54;;;;;;;11.25;5.45;;;;;23.70;100155.00;;;;2088763;28;20224;-67
2023/08/19 04:47:55;;;;;;;8.07;5.20;;;;;23.70;100147.00;;;;2096108;28;20243;-67
2023/08/19 04:48:55;;;;;;;10.23;5.50;;;;;23.70;100151.00;;;;2092500;28;20215;-67
2023/08/19 04:49:55;;;;;;;9.03;5.43;;;;;23.70;100146.00;;;;2107094;28;20268;-67
2023/08/19 04:50:56;;;;;;;6.70;5.90;;;;;23.70;100144.00;;;;2101067;28;20246;-67
2023/08/19 04:51:56;;;;;;;9.70;5.20;;;;;23.70;100154.00;;;;2095984;28;20220;-67
2023/08/19 04:52:56;;;;;;;7.17;6.03;;;;;23.70;100147.00;;;;2096961;28;20227;-67
2023/08/19 04:53:56;;;;;;;7.00;5.37;;;;;23.70;100147.00;;;;2092890;28;20223;-67
2023/08/19 04:54:57;;;;;;;6.00;5.40;;;;;23.70;100147.00;;;;2104086;28;20230;-67
2023/08/19 04:55:59;;;;;;;5.80;5.20;;;;;23.70;100152.00;;;;2100638;28;20232;-67
2023/08/19 04:56:59;;;;;;;6.28;5.50;;;;;23.70;100153.00;;;;2094297;28;20247;-67
2023/08/19 04:58:00;;;;;;;6.90;5.13;;;;;23.70;100148.00;;;;2095591;28;20251;-67
2023/08/19 04:59:00;;;;;;;7.93;6.10;;;;;23.70;100152.00;;;;2085240;28;20216;-67
2023/08/19 05:00:00;;;;;;;7.60;4.87;;;;;23.70;100152.00;;;;2088032;28;20225;-67
2023/08/19 05:01:01;;;;;;;5.17;4.77;;;;;23.70;100153.00;;;;2096229;28;20224;-67
2023/08/19 05:02:02;;;;;;;7.68;5.25;;;;;23.70;100149.00;;;;2095185;28;20224;-67